createdAt,value
2017-06-10T00:00:41.153Z,82.30
2017-06-10T00:03:07.596Z,82.40
2017-06-10T00:05:34.778Z,81.60
2017-06-10T00:08:01.641Z,81.60
2017-06-10T00:10:28.068Z,81.40
2017-06-10T00:12:54.496Z,81.20
2017-06-10T00:15:21.010Z,80.70
2017-06-10T00:17:47.441Z,80.60
2017-06-10T00:20:14.839Z,80.90
2017-06-10T00:22:41.367Z,81.70
2017-06-10T00:25:07.763Z,82.00
2017-06-10T00:27:34.209Z,81.90
2017-06-10T00:30:00.637Z,82.90
2017-06-10T00:32:27.079Z,83.50
2017-06-10T00:34:53.578Z,83.20
2017-06-10T00:37:20.452Z,83.30
2017-06-10T00:39:47.002Z,83.50
2017-06-10T00:42:13.412Z,84.20
2017-06-10T00:44:39.817Z,83.70
2017-06-10T00:47:06.380Z,84.10
2017-06-10T00:49:32.820Z,83.40
2017-06-10T00:52:00.100Z,84.00
2017-06-10T00:54:26.526Z,84.00
2017-06-10T00:56:52.933Z,84.30
2017-06-10T00:59:19.776Z,83.60
2017-06-10T01:01:46.202Z,82.90
2017-06-10T01:04:12.642Z,83.20
2017-06-10T01:06:39.461Z,83.10
2017-06-10T01:09:06.429Z,82.80
2017-06-10T01:11:32.884Z,83.00
2017-06-10T01:13:59.437Z,82.60
2017-06-10T01:16:25.871Z,82.20
2017-06-10T01:18:53.035Z,82.10
2017-06-10T01:21:19.463Z,82.10
2017-06-10T01:23:45.877Z,81.50
2017-06-10T01:26:12.861Z,81.90
2017-06-10T01:28:39.338Z,81.50
2017-06-10T01:31:05.757Z,81.80
2017-06-10T01:33:32.240Z,82.00
2017-06-10T01:35:58.728Z,83.00
2017-06-10T01:38:25.164Z,83.70
2017-06-10T01:40:51.592Z,83.20
2017-06-10T01:43:18.110Z,83.30
2017-06-10T01:45:45.470Z,83.90
2017-06-10T01:48:11.960Z,83.10
2017-06-10T01:50:39.139Z,83.70
2017-06-10T01:53:05.592Z,83.60
2017-06-10T01:55:32.145Z,83.80
2017-06-10T01:57:59.425Z,84.30
2017-06-10T02:00:25.863Z,84.10
2017-06-10T02:02:53.024Z,84.50
2017-06-10T02:05:19.511Z,84.40
2017-06-10T02:07:45.947Z,84.40
2017-06-10T02:10:13.536Z,85.30
2017-06-10T02:12:40.775Z,85.20
2017-06-10T02:15:07.208Z,85.10
2017-06-10T02:17:33.620Z,85.50
2017-06-10T02:20:00.783Z,85.00
2017-06-10T02:22:27.993Z,84.90
2017-06-10T02:24:54.426Z,84.80
2017-06-10T02:27:21.707Z,84.80
2017-06-10T02:29:48.116Z,84.80
2017-06-10T02:32:15.130Z,84.50
2017-06-10T02:34:41.544Z,84.10
2017-06-10T02:37:07.974Z,83.70
2017-06-10T02:39:34.419Z,83.50
2017-06-10T02:42:00.842Z,83.50
2017-06-10T02:44:28.178Z,83.60
2017-06-10T02:46:54.643Z,83.60
2017-06-10T02:49:21.141Z,83.60
2017-06-10T02:51:47.565Z,83.80
2017-06-10T02:54:14.053Z,83.70
2017-06-10T02:56:40.487Z,83.60
2017-06-10T02:59:07.681Z,84.60
2017-06-10T03:01:34.097Z,83.70
2017-06-10T03:04:00.534Z,83.80
2017-06-10T03:06:26.951Z,83.20
2017-06-10T03:08:53.382Z,83.20
2017-06-10T03:11:20.564Z,83.60
2017-06-10T03:13:48.071Z,83.90
2017-06-10T03:16:14.503Z,83.80
2017-06-10T03:18:41.687Z,83.80
2017-06-10T03:21:08.120Z,83.70
2017-06-10T03:23:35.292Z,83.60
2017-06-10T03:26:02.460Z,83.40
2017-06-10T03:28:30.330Z,84.20
2017-06-10T03:30:56.803Z,83.30
2017-06-10T03:33:23.246Z,83.20
2017-06-10T03:35:49.658Z,83.50
2017-06-10T03:38:16.093Z,83.40
2017-06-10T03:40:42.670Z,83.30
2017-06-10T03:43:09.432Z,83.30
2017-06-10T03:45:35.864Z,83.30
2017-06-10T03:48:03.144Z,83.40
2017-06-10T03:50:29.596Z,83.40
2017-06-10T03:52:56.056Z,83.20
2017-06-10T03:55:22.525Z,83.10
2017-06-10T03:57:49.071Z,82.00
2017-06-10T04:00:15.522Z,81.30
2017-06-10T04:02:42.703Z,81.50
2017-06-10T04:05:09.218Z,81.30
2017-06-10T04:07:35.911Z,80.20
2017-06-10T04:10:03.089Z,75.70
2017-06-10T04:12:29.555Z,75.50
2017-06-10T04:14:56.007Z,73.70
2017-06-10T04:17:22.564Z,70.90
2017-06-10T04:19:49.021Z,67.80
2017-06-10T04:22:15.475Z,65.40
2017-06-10T04:24:42.031Z,63.20
2017-06-10T04:27:08.501Z,60.10
2017-06-10T04:29:35.047Z,58.00
2017-06-10T04:32:01.605Z,56.80
2017-06-10T04:34:28.038Z,56.10
2017-06-10T04:36:54.489Z,55.60
2017-06-10T04:39:20.920Z,54.90
2017-06-10T04:41:47.386Z,53.80
2017-06-10T04:44:13.843Z,52.90
2017-06-10T04:46:40.497Z,50.70
2017-06-10T04:49:06.943Z,49.90
2017-06-10T04:51:33.372Z,48.80
2017-06-10T04:53:59.818Z,48.80
2017-06-10T04:56:26.591Z,49.80
2017-06-10T04:58:53.024Z,51.70
2017-06-10T05:01:20.552Z,53.10
2017-06-10T05:03:47.017Z,53.00
2017-06-10T05:06:13.666Z,52.60
2017-06-10T05:08:40.222Z,50.90
2017-06-10T05:11:06.679Z,49.30
2017-06-10T05:13:33.199Z,47.90
2017-06-10T05:15:59.703Z,46.50
2017-06-10T05:18:26.114Z,45.30
2017-06-10T05:20:53.057Z,43.90
2017-06-10T05:23:19.843Z,42.90
2017-06-10T05:25:46.466Z,42.20
2017-06-10T05:28:12.968Z,41.40
2017-06-10T05:30:39.516Z,41.50
2017-06-10T05:33:06.014Z,42.30
2017-06-10T05:35:32.534Z,43.60
2017-06-10T05:37:58.993Z,44.30
2017-06-10T05:40:26.003Z,45.20
2017-06-10T05:42:52.480Z,46.20
2017-06-10T05:45:19.433Z,47.20
2017-06-10T05:47:45.968Z,45.90
2017-06-10T05:50:12.496Z,45.00
2017-06-10T05:52:39.189Z,44.00
2017-06-10T05:55:05.625Z,43.40
2017-06-10T05:57:32.061Z,43.80
2017-06-10T05:59:59.241Z,43.90
2017-06-10T06:02:25.873Z,43.80
2017-06-10T06:04:52.497Z,43.60
2017-06-10T06:07:19.016Z,43.70
2017-06-10T06:09:45.438Z,44.80
2017-06-10T06:12:12.135Z,46.20
2017-06-10T06:14:38.598Z,47.00
2017-06-10T06:17:06.227Z,47.70
2017-06-10T06:19:32.654Z,49.50
2017-06-10T06:21:59.066Z,50.80
2017-06-10T06:24:26.271Z,48.90
2017-06-10T06:26:52.712Z,48.90
2017-06-10T06:29:19.204Z,46.30
2017-06-10T06:31:45.618Z,45.20
2017-06-10T06:34:13.064Z,42.20
2017-06-10T06:36:39.661Z,38.00
2017-06-10T06:39:06.121Z,36.70
2017-06-10T06:41:32.752Z,36.40
2017-06-10T06:43:59.335Z,35.30
2017-06-10T06:46:26.001Z,33.60
2017-06-10T06:48:52.574Z,32.40
2017-06-10T06:51:19.017Z,31.50
2017-06-10T06:53:46.041Z,30.50
2017-06-10T06:56:12.745Z,29.20
2017-06-10T06:58:39.198Z,28.10
2017-06-10T07:01:05.673Z,27.00
2017-06-10T07:03:32.235Z,27.50
2017-06-10T07:05:58.666Z,26.70
2017-06-10T07:08:25.275Z,26.00
2017-06-10T07:10:51.731Z,25.00
2017-06-10T07:13:18.241Z,23.50
2017-06-10T07:15:44.770Z,23.30
2017-06-10T07:18:12.073Z,26.30
2017-06-10T07:20:38.506Z,25.80
2017-06-10T07:23:05.220Z,27.50
2017-06-10T07:25:31.756Z,29.60
2017-06-10T07:27:58.184Z,31.90
2017-06-10T07:30:24.646Z,33.40
2017-06-10T07:32:51.426Z,30.70
2017-06-10T07:35:17.985Z,28.50
2017-06-10T07:37:44.427Z,26.10
2017-06-10T07:40:11.135Z,25.30
2017-06-10T07:42:37.601Z,24.60
2017-06-10T07:45:04.091Z,26.20
2017-06-10T07:47:30.842Z,26.00
2017-06-10T07:49:58.074Z,24.80
2017-06-10T07:52:24.525Z,24.80
2017-06-10T07:54:50.961Z,23.80
2017-06-10T07:57:18.810Z,22.10
2017-06-10T07:59:45.847Z,22.10
2017-06-10T08:02:12.335Z,23.10
2017-06-10T08:04:38.825Z,24.40
2017-06-10T08:07:05.327Z,26.20
2017-06-10T08:09:31.757Z,27.90
2017-06-10T08:11:58.574Z,29.30
2017-06-10T08:14:25.298Z,28.90
2017-06-10T08:16:52.064Z,29.50
2017-06-10T08:19:18.524Z,29.80
2017-06-10T08:21:44.976Z,29.10
2017-06-10T08:24:11.419Z,30.00
2017-06-10T08:26:37.848Z,30.80
2017-06-10T08:29:04.648Z,29.70
2017-06-10T08:31:31.177Z,29.70
2017-06-10T08:33:58.358Z,30.20
2017-06-10T08:36:24.806Z,32.00
2017-06-10T08:38:51.614Z,33.70
2017-06-10T08:41:18.127Z,34.20
2017-06-10T08:43:44.593Z,34.70
2017-06-10T08:46:11.154Z,33.90
2017-06-10T08:48:37.629Z,33.70
2017-06-10T08:51:04.463Z,34.00
2017-06-10T08:53:31.022Z,34.90
2017-06-10T08:55:57.543Z,34.60
2017-06-10T08:58:24.363Z,35.80
2017-06-10T09:00:50.862Z,36.00
2017-06-10T09:03:18.076Z,35.00
2017-06-10T09:05:44.778Z,34.90
2017-06-10T09:08:11.293Z,35.00
2017-06-10T09:10:37.772Z,35.60
2017-06-10T09:13:04.308Z,36.60
2017-06-10T09:15:30.866Z,35.80
2017-06-10T09:17:57.430Z,35.30
2017-06-10T09:20:23.907Z,36.60
2017-06-10T09:22:50.567Z,37.20
2017-06-10T09:25:18.184Z,37.80
2017-06-10T09:27:44.655Z,37.50
2017-06-10T09:30:11.237Z,36.70
2017-06-10T09:32:37.801Z,36.60
2017-06-10T09:35:04.456Z,36.70
2017-06-10T09:37:31.978Z,35.80
2017-06-10T09:39:58.601Z,35.80
2017-06-10T09:42:25.155Z,36.80
2017-06-10T09:44:51.695Z,36.40
2017-06-10T09:47:18.481Z,36.20
2017-06-10T09:49:45.125Z,36.00
2017-06-10T09:52:11.913Z,35.90
2017-06-10T09:54:38.466Z,36.00
2017-06-10T09:57:04.975Z,35.80
2017-06-10T09:59:31.454Z,35.30
2017-06-10T10:01:58.975Z,34.40
2017-06-10T10:04:25.420Z,34.40
2017-06-10T10:06:52.123Z,33.90
2017-06-10T10:09:18.598Z,34.90
2017-06-10T10:11:45.423Z,33.80
2017-06-10T10:14:11.843Z,34.40
2017-06-10T10:16:38.360Z,34.00
2017-06-10T10:19:05.184Z,34.60
2017-06-10T10:21:31.730Z,35.60
2017-06-10T10:23:58.283Z,35.70
2017-06-10T10:26:24.747Z,36.20
2017-06-10T10:28:51.263Z,35.60
2017-06-10T10:31:18.879Z,35.50
2017-06-10T10:33:45.439Z,36.10
2017-06-10T10:36:11.953Z,36.90
2017-06-10T10:38:38.558Z,36.80
2017-06-10T10:41:05.176Z,36.40
2017-06-10T10:43:31.650Z,35.30
2017-06-10T10:45:58.333Z,35.10
2017-06-10T10:48:24.954Z,35.70
2017-06-10T10:50:51.553Z,35.20
2017-06-10T10:53:18.006Z,35.00
2017-06-10T10:55:44.560Z,33.80
2017-06-10T10:58:11.840Z,34.30
2017-06-10T11:00:38.400Z,34.20
2017-06-10T11:03:04.914Z,34.80
2017-06-10T11:05:31.478Z,34.80
2017-06-10T11:07:58.789Z,33.90
2017-06-10T11:10:25.288Z,33.90
2017-06-10T11:12:51.809Z,34.10
2017-06-10T11:15:18.470Z,33.20
2017-06-10T11:17:45.128Z,32.70
2017-06-10T11:20:11.786Z,32.40
2017-06-10T11:22:38.227Z,31.60
2017-06-10T11:25:05.619Z,31.30
2017-06-10T11:27:32.118Z,31.30
2017-06-10T11:29:58.917Z,31.90
2017-06-10T11:32:26.447Z,32.40
2017-06-10T11:34:52.981Z,32.20
2017-06-10T11:37:19.540Z,32.60
2017-06-10T11:39:46.056Z,32.40
2017-06-10T11:42:13.573Z,33.10
2017-06-10T11:44:40.550Z,33.10
2017-06-10T11:47:07.155Z,33.20
2017-06-10T11:49:34.082Z,33.10
2017-06-10T11:52:00.798Z,33.70
2017-06-10T11:54:27.591Z,34.20
2017-06-10T11:56:54.242Z,34.50
2017-06-10T11:59:21.836Z,34.50
2017-06-10T12:01:48.638Z,34.50
2017-06-10T12:04:15.156Z,35.10
2017-06-10T12:06:42.840Z,34.00
2017-06-10T12:09:09.511Z,33.60
2017-06-10T12:11:36.773Z,33.80
2017-06-10T12:14:03.331Z,33.80
2017-06-10T12:16:29.993Z,34.10
2017-06-10T12:18:56.565Z,34.00
2017-06-10T12:21:23.345Z,35.30
2017-06-10T12:23:49.793Z,34.80
2017-06-10T12:26:16.255Z,36.00
2017-06-10T12:28:42.894Z,35.70
2017-06-10T12:31:09.528Z,35.10
2017-06-10T12:33:36.682Z,34.80
2017-06-10T12:36:04.250Z,35.60
2017-06-10T12:38:31.466Z,35.60
2017-06-10T12:40:59.770Z,34.50
2017-06-10T12:43:26.208Z,34.50
2017-06-10T12:45:52.866Z,34.10
2017-06-10T12:48:19.513Z,33.90
2017-06-10T12:50:46.118Z,34.50
2017-06-10T12:53:12.878Z,34.00
2017-06-10T12:55:39.315Z,33.70
2017-06-10T12:58:06.543Z,32.60
2017-06-10T13:00:32.992Z,32.60
2017-06-10T13:02:59.513Z,32.90
2017-06-10T13:05:26.069Z,33.20
2017-06-10T13:07:52.627Z,34.40
2017-06-10T13:10:19.039Z,34.70
2017-06-10T13:12:45.647Z,34.10
2017-06-10T13:15:12.303Z,33.60
2017-06-10T13:17:39.143Z,33.00
2017-06-10T13:20:05.673Z,32.50
2017-06-10T13:22:32.117Z,33.40
2017-06-10T13:24:59.029Z,33.60
2017-06-10T13:27:25.692Z,34.00
2017-06-10T13:29:52.983Z,33.90
2017-06-10T13:32:19.432Z,32.50
2017-06-10T13:34:45.938Z,32.70
2017-06-10T13:37:12.442Z,33.60
2017-06-10T13:39:40.104Z,33.30
2017-06-10T13:42:06.697Z,33.20
2017-06-10T13:44:33.458Z,32.20
2017-06-10T13:47:00.257Z,32.50
2017-06-10T13:49:26.822Z,32.20
2017-06-10T13:51:53.792Z,32.10
2017-06-10T13:54:20.305Z,33.00
2017-06-10T13:56:46.866Z,33.00
2017-06-10T13:59:13.421Z,32.90
2017-06-10T14:01:40.373Z,32.70
2017-06-10T14:04:07.536Z,33.40
2017-06-10T14:06:33.960Z,33.40
2017-06-10T14:09:00.935Z,34.70
2017-06-10T14:11:27.684Z,33.60
2017-06-10T14:13:54.157Z,33.10
2017-06-10T14:16:20.620Z,32.70
2017-06-10T14:18:48.474Z,33.70
2017-06-10T14:21:15.746Z,33.60
2017-06-10T14:23:42.621Z,33.00
2017-06-10T14:26:09.120Z,32.70
2017-06-10T14:28:35.889Z,32.70
2017-06-10T14:31:02.608Z,32.90
2017-06-10T14:33:29.081Z,32.80
2017-06-10T14:35:55.506Z,33.30
2017-06-10T14:38:23.250Z,33.70
2017-06-10T14:40:49.824Z,34.20
2017-06-10T14:43:16.345Z,34.10
2017-06-10T14:45:43.657Z,34.50
2017-06-10T14:48:10.318Z,34.40
2017-06-10T14:50:37.250Z,35.20
2017-06-10T14:53:03.714Z,35.50
2017-06-10T14:55:30.197Z,35.90
2017-06-10T14:57:56.727Z,36.30
2017-06-10T15:00:23.152Z,36.50
2017-06-10T15:02:49.615Z,36.10
2017-06-10T15:05:16.854Z,36.10
2017-06-10T15:07:43.365Z,36.10
2017-06-10T15:10:09.793Z,36.70
2017-06-10T15:12:36.317Z,37.50
2017-06-10T15:15:02.768Z,37.00
2017-06-10T15:17:29.257Z,37.00
2017-06-10T15:19:56.021Z,37.50
2017-06-10T15:22:22.537Z,37.60
2017-06-10T15:24:49.241Z,37.50
2017-06-10T15:27:15.722Z,37.70
2017-06-10T15:29:42.206Z,37.60
2017-06-10T15:32:09.386Z,37.70
2017-06-10T15:34:36.870Z,38.70
2017-06-10T15:37:03.286Z,38.70
2017-06-10T15:39:30.641Z,38.30
2017-06-10T15:41:57.540Z,38.30
2017-06-10T15:44:24.028Z,38.20
2017-06-10T15:46:51.038Z,37.80
2017-06-10T15:49:17.435Z,38.50
2017-06-10T15:51:43.875Z,38.40
2017-06-10T15:54:10.716Z,37.50
2017-06-10T15:56:38.536Z,38.40
2017-06-10T15:59:05.720Z,38.40
2017-06-10T16:01:32.925Z,38.00
2017-06-10T16:03:59.593Z,38.00
2017-06-10T16:06:26.497Z,38.20
2017-06-10T16:08:52.997Z,38.50
2017-06-10T16:11:19.815Z,37.90
2017-06-10T16:13:46.406Z,37.60
2017-06-10T16:16:12.866Z,37.10
2017-06-10T16:18:39.420Z,36.70
2017-06-10T16:21:05.918Z,36.70
2017-06-10T16:23:32.392Z,37.20
2017-06-10T16:25:59.102Z,37.20
2017-06-10T16:28:26.006Z,36.90
2017-06-10T16:30:53.249Z,36.50
2017-06-10T16:33:19.734Z,36.50
2017-06-10T16:35:46.160Z,37.40
2017-06-10T16:38:12.810Z,37.90
2017-06-10T16:40:40.183Z,37.90
2017-06-10T16:43:06.751Z,38.00
2017-06-10T16:45:33.363Z,37.60
2017-06-10T16:48:00.579Z,38.80
2017-06-10T16:50:27.378Z,38.70
2017-06-10T16:52:53.897Z,39.20
2017-06-10T16:55:20.313Z,39.70
2017-06-10T16:57:47.498Z,40.40
2017-06-10T17:00:13.961Z,40.40
2017-06-10T17:02:41.185Z,42.00
2017-06-10T17:05:08.148Z,42.00
2017-06-10T17:07:34.859Z,42.30
2017-06-10T17:10:01.355Z,41.40
2017-06-10T17:12:27.989Z,41.60
2017-06-10T17:14:54.478Z,41.30
2017-06-10T17:17:20.894Z,41.50
2017-06-10T17:19:48.098Z,42.40
2017-06-10T17:22:15.390Z,43.00
2017-06-10T17:24:41.862Z,42.30
2017-06-10T17:27:08.374Z,42.70
2017-06-10T17:29:34.885Z,43.40
2017-06-10T17:32:02.160Z,43.10
2017-06-10T17:34:29.390Z,42.80
2017-06-10T17:36:56.183Z,43.30
2017-06-10T17:39:22.635Z,42.90
2017-06-10T17:41:49.157Z,42.80
2017-06-10T17:44:16.065Z,43.30
2017-06-10T17:46:42.557Z,44.00
2017-06-10T17:49:08.977Z,44.00
2017-06-10T17:51:35.591Z,44.20
2017-06-10T17:54:02.802Z,44.90
2017-06-10T17:56:29.249Z,44.90
2017-06-10T17:58:56.023Z,45.20
2017-06-10T18:01:22.467Z,45.30
2017-06-10T18:03:48.942Z,45.40
2017-06-10T18:06:15.450Z,45.50
2017-06-10T18:08:42.731Z,45.80
2017-06-10T18:11:09.288Z,45.80
2017-06-10T18:13:35.848Z,46.00
2017-06-10T18:16:02.845Z,46.30
2017-06-10T18:18:29.292Z,46.20
2017-06-10T18:20:56.408Z,46.40
2017-06-10T18:23:23.676Z,47.40
2017-06-10T18:25:56.240Z,47.30
2017-06-10T18:28:22.868Z,47.40
2017-06-10T18:30:55.563Z,47.60
2017-06-10T18:33:22.051Z,47.70
2017-06-10T18:35:48.926Z,48.20
2017-06-10T18:38:15.390Z,48.90
2017-06-10T18:40:42.137Z,49.60
2017-06-10T18:43:08.590Z,50.40
2017-06-10T18:45:35.021Z,50.50
2017-06-10T18:48:01.450Z,50.50
2017-06-10T18:50:29.121Z,52.40
2017-06-10T18:52:56.309Z,51.70
2017-06-10T18:55:23.594Z,52.40
2017-06-10T18:57:50.822Z,52.70
2017-06-10T19:00:17.614Z,52.70
2017-06-10T19:02:44.311Z,53.10
2017-06-10T19:05:10.831Z,53.10
2017-06-10T19:07:38.028Z,53.30
2017-06-10T19:10:04.474Z,53.30
2017-06-10T19:12:31.760Z,53.60
2017-06-10T19:14:58.960Z,53.50
2017-06-10T19:17:25.590Z,53.50
2017-06-10T19:19:52.052Z,53.40
2017-06-10T19:22:18.488Z,53.70
2017-06-10T19:24:45.683Z,54.40
2017-06-10T19:27:12.242Z,54.40
2017-06-10T19:29:39.272Z,54.60
2017-06-10T19:32:06.469Z,54.50
2017-06-10T19:34:33.889Z,54.30
2017-06-10T19:37:00.658Z,54.20
2017-06-10T19:39:27.763Z,54.90
2017-06-10T19:41:54.245Z,55.70
2017-06-10T19:44:20.698Z,56.40
2017-06-10T19:46:47.260Z,56.70
2017-06-10T19:49:13.699Z,56.80
2017-06-10T19:51:40.535Z,56.90
2017-06-10T19:54:07.143Z,57.00
2017-06-10T19:56:33.799Z,57.00
2017-06-10T19:59:00.442Z,57.00
2017-06-10T20:01:27.737Z,58.30
2017-06-10T20:03:55.020Z,57.60
2017-06-10T20:06:21.482Z,57.80
2017-06-10T20:08:48.244Z,57.90
2017-06-10T20:11:14.716Z,58.50
2017-06-10T20:13:41.142Z,58.80
2017-06-10T20:16:07.592Z,59.20
2017-06-10T20:18:34.155Z,59.60
2017-06-10T20:21:00.589Z,59.50
2017-06-10T20:23:27.062Z,59.60
2017-06-10T20:25:54.373Z,59.80
2017-06-10T20:28:21.345Z,59.90
2017-06-10T20:30:47.781Z,60.30
2017-06-10T20:33:14.274Z,60.40
2017-06-10T20:35:40.882Z,60.80
2017-06-10T20:38:07.386Z,61.00
2017-06-10T20:40:33.911Z,60.50
2017-06-10T20:43:00.355Z,60.80
2017-06-10T20:45:26.914Z,61.40
2017-06-10T20:47:53.469Z,61.70
2017-06-10T20:50:19.941Z,62.30
2017-06-10T20:52:46.486Z,62.70
2017-06-10T20:55:13.042Z,62.60
2017-06-10T20:57:39.810Z,62.50
2017-06-10T21:00:06.879Z,62.50
2017-06-10T21:02:33.434Z,63.00
2017-06-10T21:04:59.992Z,63.10
2017-06-10T21:07:26.436Z,63.10
2017-06-10T21:09:53.614Z,62.30
2017-06-10T21:12:20.793Z,62.30
2017-06-10T21:14:47.350Z,62.10
2017-06-10T21:17:13.966Z,62.30
2017-06-10T21:19:40.429Z,62.10
2017-06-10T21:22:08.048Z,63.90
2017-06-10T21:24:34.533Z,63.90
2017-06-10T21:27:01.167Z,63.60
2017-06-10T21:29:27.699Z,63.30
2017-06-10T21:31:54.671Z,63.00
2017-06-10T21:34:22.068Z,63.30
2017-06-10T21:36:48.566Z,63.10
2017-06-10T21:39:15.051Z,63.40
2017-06-10T21:41:41.886Z,63.60
2017-06-10T21:44:08.346Z,63.60
2017-06-10T21:46:34.836Z,63.50
2017-06-10T21:49:01.299Z,63.50
2017-06-10T21:51:28.508Z,63.80
2017-06-10T21:53:54.967Z,63.80
2017-06-10T21:56:21.528Z,64.00
2017-06-10T21:58:47.960Z,64.30
2017-06-10T22:01:14.378Z,64.70
2017-06-10T22:03:40.824Z,64.70
2017-06-10T22:06:07.296Z,65.20
2017-06-10T22:08:34.518Z,65.80
2017-06-10T22:11:01.058Z,65.80
2017-06-10T22:13:27.562Z,65.70
2017-06-10T22:15:55.577Z,65.80
2017-06-10T22:18:22.044Z,65.80
2017-06-10T22:20:49.415Z,66.20
2017-06-10T22:23:15.895Z,66.40
2017-06-10T22:25:42.391Z,66.10
2017-06-10T22:28:08.913Z,66.00
2017-06-10T22:30:35.428Z,65.90
2017-06-10T22:33:02.870Z,66.00
2017-06-10T22:35:29.339Z,66.00
2017-06-10T22:37:56.308Z,66.20
2017-06-10T22:40:22.826Z,66.40
2017-06-10T22:42:49.384Z,66.60
2017-06-10T22:45:15.942Z,66.90
2017-06-10T22:47:42.408Z,67.00
2017-06-10T22:50:08.870Z,67.30
2017-06-10T22:52:35.344Z,67.40
2017-06-10T22:55:01.953Z,67.70
2017-06-10T22:57:28.926Z,67.80
2017-06-10T22:59:56.110Z,68.50
2017-06-10T23:02:22.629Z,68.50
2017-06-10T23:04:49.085Z,68.80
2017-06-10T23:07:15.686Z,69.10
2017-06-10T23:09:42.487Z,69.30
2017-06-10T23:12:09.006Z,69.40
2017-06-10T23:14:35.668Z,69.60
2017-06-10T23:17:02.615Z,69.90
2017-06-10T23:19:29.913Z,69.90
2017-06-10T23:21:56.367Z,70.70
2017-06-10T23:24:22.925Z,70.10
2017-06-10T23:26:49.566Z,70.50
2017-06-10T23:29:16.953Z,70.70
2017-06-10T23:31:43.423Z,70.60
2017-06-10T23:34:09.876Z,70.60
2017-06-10T23:36:36.437Z,70.90
2017-06-10T23:39:03.344Z,70.90
2017-06-10T23:41:29.798Z,71.40
2017-06-10T23:43:56.376Z,71.70
2017-06-10T23:46:22.824Z,71.50
2017-06-10T23:48:50.030Z,72.10
2017-06-10T23:51:17.200Z,72.30
2017-06-10T23:53:43.654Z,72.30
2017-06-10T23:56:10.818Z,71.50
2017-06-10T23:58:37.298Z,72.20
